Time;durP1;ratioP1;P1;durP2;ratioP2;P2;SDS_P1;SDS_P2;PMS_P1;PMS_P2;Temp;Humidity;BMP_temperature;BMP_pressure;BME280_temperature;BME280_humidity;BME280_pressure;Samples;Min_cycle;Max_cycle;Signal;HPM_P1;HPM_P2
2023/07/08 00:00:41;;;;;;;6.25;3.25;;;;;;;17.29;94.63;99517.31;5036512;28;20037;-81
2023/07/08 00:03:08;;;;;;;9.45;3.15;;;;;;;17.22;95.80;99529.44;5036117;28;20405;-83
2023/07/08 00:05:34;;;;;;;7.57;3.38;;;;;;;17.03;97.46;99509.88;5036232;28;20061;-80
2023/07/08 00:07:59;;;;;;;7.55;4.22;;;;;;;17.07;98.69;99513.75;5052771;28;20041;-80
2023/07/08 00:10:26;;;;;;;6.05;3.40;;;;;;;16.88;99.68;99497.72;5036294;28;20045;-80
2023/07/08 00:12:55;;;;;;;5.90;3.35;;;;;;;17.12;100.00;99541.81;5052696;28;20068;-81
2023/07/08 00:15:25;;;;;;;10.68;3.63;;;;;;;17.14;100.00;99526.06;5035811;28;20109;-81
2023/07/08 00:17:50;;;;;;;5.80;2.95;;;;;;;17.11;100.00;99518.44;5052606;28;20029;-82
2023/07/08 00:20:29;;;;;;;7.65;3.65;;;;;;;17.15;100.00;99513.34;5052343;28;20120;-81
2023/07/08 00:22:55;;;;;;;8.73;3.28;;;;;;;17.13;100.00;99505.41;5019917;28;20476;-81
2023/07/08 00:25:21;;;;;;;12.23;4.65;;;;;;;17.10;100.00;99500.50;5035842;28;20033;-81
2023/07/08 00:27:47;;;;;;;8.40;3.72;;;;;;;17.01;100.00;99490.28;5019319;28;20048;-81
2023/07/08 00:30:23;;;;;;;10.45;3.90;;;;;;;17.07;100.00;99495.56;5035689;28;20464;-82
2023/07/08 00:32:53;;;;;;;6.70;3.30;;;;;;;17.18;100.00;99498.44;5052087;28;20043;-81
2023/07/08 00:35:30;;;;;;;8.23;4.10;;;;;;;17.25;100.00;99496.34;5036126;28;20037;-83
2023/07/08 00:38:01;;;;;;;6.20;3.28;;;;;;;17.22;100.00;99477.84;5037369;28;20511;-81
2023/07/08 00:40:32;;;;;;;6.22;3.08;;;;;;;17.24;100.00;99467.53;5020214;28;20033;-82
2023/07/08 00:43:03;;;;;;;10.00;3.53;;;;;;;17.29;100.00;99475.75;5051727;28;20049;-84
2023/07/08 00:45:40;;;;;;;11.63;3.83;;;;;;;17.31;100.00;99454.59;5019398;28;20048;-82
2023/07/08 00:48:18;;;;;;;12.15;3.92;;;;;;;17.28;100.00;99444.22;5035960;28;20471;-81
2023/07/08 00:50:43;;;;;;;8.55;4.13;;;;;;;17.27;100.00;99432.53;5035751;28;20403;-83
2023/07/08 00:53:36;;;;;;;8.88;4.20;;;;;;;17.31;100.00;99424.72;5052440;28;20033;-81
2023/07/08 00:56:26;;;;;;;11.60;3.75;;;;;;;17.33;100.00;99431.56;5033525;28;20048;-82
2023/07/08 00:58:55;;;;;;;8.88;3.05;;;;;;;17.37;100.00;99440.00;5019504;28;20124;-82
2023/07/08 01:01:21;;;;;;;8.57;3.65;;;;;;;17.36;100.00;99417.44;5052284;28;20028;-81
2023/07/08 01:03:57;;;;;;;6.82;3.25;;;;;;;17.43;100.00;99430.00;5035356;28;20029;-82
2023/07/08 01:06:28;;;;;;;8.85;3.95;;;;;;;17.46;100.00;99422.16;5051891;28;20120;-81
2023/07/08 01:08:54;;;;;;;10.27;3.80;;;;;;;17.46;100.00;99413.19;5051981;28;20387;-83
2023/07/08 01:11:21;;;;;;;11.15;4.65;;;;;;;17.42;100.00;99399.31;5051912;28;20029;-83
2023/07/08 01:13:48;;;;;;;7.95;3.22;;;;;;;17.54;100.00;99402.72;5035672;28;20326;-80
2023/07/08 01:16:14;;;;;;;8.68;3.28;;;;;;;17.52;100.00;99394.00;5051929;28;20482;-81
2023/07/08 01:18:41;;;;;;;7.88;3.88;;;;;;;17.46;100.00;99375.16;5052012;28;20058;-82
2023/07/08 01:21:28;;;;;;;10.07;3.97;;;;;;;17.50;100.00;99373.59;5051881;28;20039;-81
2023/07/08 01:23:54;;;;;;;9.30;3.72;;;;;;;17.36;100.00;99373.97;5018866;28;20136;-81
2023/07/08 01:26:22;;;;;;;7.93;2.85;;;;;;;17.22;100.00;99371.91;5035562;28;20442;-83
2023/07/08 01:28:48;;;;;;;5.20;3.20;;;;;;;16.94;100.00;99371.03;5019154;28;20029;-82
2023/07/08 01:31:14;;;;;;;8.80;3.60;;;;;;;16.70;100.00;99365.78;5051610;28;20471;-81
2023/07/08 01:33:39;;;;;;;5.93;3.08;;;;;;;16.45;100.00;99343.69;5035343;28;20416;-82
2023/07/08 01:36:07;;;;;;;10.27;3.97;;;;;;;16.34;100.00;99339.19;5035282;28;20036;-84
2023/07/08 01:38:33;;;;;;;8.23;3.97;;;;;;;16.18;100.00;99333.53;5035037;28;20048;-81
2023/07/08 01:40:59;;;;;;;8.25;3.78;;;;;;;16.19;100.00;99350.63;5035426;28;20436;-80
2023/07/08 01:43:27;;;;;;;8.73;3.50;;;;;;;16.09;100.00;99342.31;5051521;28;20028;-83
2023/07/08 01:45:53;;;;;;;12.23;4.13;;;;;;;16.01;100.00;99333.53;5034843;28;20051;-82
2023/07/08 01:48:23;;;;;;;5.75;3.60;;;;;;;15.96;100.00;99335.34;5035346;28;20044;-82
2023/07/08 01:51:04;;;;;;;11.00;3.70;;;;;;;15.90;100.00;99320.88;5035602;28;20032;-82
2023/07/08 01:53:33;;;;;;;6.55;3.28;;;;;;;15.95;100.00;99329.09;5019028;28;20146;-83
2023/07/08 01:56:01;;;;;;;10.20;2.42;;;;;;;15.96;100.00;99335.34;5038667;28;20024;-85
2023/07/08 01:58:27;;;;;;;6.85;3.45;;;;;;;15.73;100.00;99298.38;5055008;28;20418;-81
2023/07/08 02:00:54;;;;;;;4.68;2.45;;;;;;;15.94;100.00;99326.63;5022407;28;20047;-82
2023/07/08 02:03:20;;;;;;;1.42;1.33;;;;;;;15.77;100.00;99284.09;5038788;28;20036;-81
2023/07/08 02:05:46;;;;;;;3.58;2.60;;;;;;;15.89;100.00;99302.16;5022139;28;20041;-82
2023/07/08 02:08:12;;;;;;;3.63;2.30;;;;;;;15.89;100.00;99296.72;5038331;28;20048;-82
2023/07/08 02:10:39;;;;;;;2.28;1.58;;;;;;;15.87;100.00;99282.59;5038454;28;20036;-83
2023/07/08 02:13:05;;;;;;;1.75;1.42;;;;;;;15.92;100.00;99282.69;5021996;28;20079;-83
2023/07/08 02:15:31;;;;;;;2.30;1.52;;;;;;;15.92;100.00;99275.38;5038830;28;20140;-81
2023/07/08 02:17:56;;;;;;;10.35;2.22;;;;;;;15.62;100.00;99216.06;5038574;28;20515;-82
2023/07/08 02:20:22;;;;;;;0.98;0.90;;;;;;;15.99;100.00;99275.22;5037773;28;20097;-83
2023/07/08 02:22:48;;;;;;;4.53;1.98;;;;;;;15.96;100.00;99271.09;5054918;28;20064;-83
2023/07/08 02:25:14;;;;;;;2.80;1.48;;;;;;;15.99;100.00;99277.94;5038555;28;20033;-83
2023/07/08 02:27:40;;;;;;;2.10;1.38;;;;;;;16.00;100.00;99258.69;5038244;28;20436;-82
2023/07/08 02:30:06;;;;;;;1.38;1.08;;;;;;;16.02;100.00;99263.88;5005029;28;20029;-81
2023/07/08 02:32:35;;;;;;;1.08;0.90;;;;;;;15.92;100.00;99237.41;5005453;28;20040;-82
2023/07/08 02:35:03;;;;;;;3.75;1.77;;;;;;;15.92;100.00;99232.00;5037906;28;20035;-82
2023/07/08 02:37:32;;;;;;;1.55;1.20;;;;;;;16.07;100.00;99246.88;5037874;28;20049;-83
2023/07/08 02:39:58;;;;;;;0.70;0.70;;;;;;;16.08;100.00;99234.94;5038185;28;20041;-81
2023/07/08 02:42:24;;;;;;;5.88;1.23;;;;;;;16.10;100.00;99233.63;5021779;28;20143;-81
2023/07/08 02:44:50;;;;;;;1.52;1.42;;;;;;;16.17;100.00;99238.88;5054494;28;20530;-81
2023/07/08 02:47:15;;;;;;;3.30;1.95;;;;;;;16.09;100.00;99217.59;5037660;28;20037;-81
2023/07/08 02:49:45;;;;;;;5.85;1.38;;;;;;;16.19;100.00;99225.88;5021375;28;20064;-81
2023/07/08 02:52:11;;;;;;;1.25;0.63;;;;;;;16.27;100.00;99225.44;5055393;28;20078;-82
2023/07/08 02:54:37;;;;;;;2.45;1.48;;;;;;;16.25;100.00;99214.84;5037653;28;20041;-81
2023/07/08 02:57:03;;;;;;;1.10;1.05;;;;;;;16.23;100.00;99197.19;5037373;28;20468;-81
2023/07/08 02:59:29;;;;;;;725.10;297.35;;;;;;;16.17;100.00;99177.34;5053943;28;20108;-81
2023/07/08 03:01:54;;;;;;;0.50;0.50;;;;;;;16.19;100.00;99185.19;5054541;28;20059;-81
2023/07/08 03:04:21;;;;;;;1.50;1.33;;;;;;;16.24;100.00;99177.94;5037452;28;20074;-82
2023/07/08 03:06:50;;;;;;;1.42;0.80;;;;;;;16.36;100.00;99180.53;5037166;28;20036;-81
2023/07/08 03:09:17;;;;;;;0.82;0.68;;;;;;;16.36;100.00;99190.59;5054082;28;20392;-82
2023/07/08 03:11:43;;;;;;;1.27;1.17;;;;;;;16.41;100.00;99198.78;5037375;28;20025;-81
2023/07/08 03:14:08;;;;;;;2.65;1.02;;;;;;;16.30;100.00;99169.88;5053316;28;20078;-81
2023/07/08 03:16:34;;;;;;;1.38;1.15;;;;;;;16.41;100.00;99199.59;5020167;28;20463;-81
2023/07/08 03:19:00;;;;;;;4.97;1.33;;;;;;;16.40;100.00;99173.53;5037279;28;20114;-81
2023/07/08 03:21:28;;;;;;;0.63;0.60;;;;;;;16.43;100.00;99180.34;5053382;28;20025;-81
2023/07/08 03:23:54;;;;;;;10.77;1.40;;;;;;;16.31;100.00;99155.25;5020692;28;20033;-81
2023/07/08 03:26:21;;;;;;;4.00;1.73;;;;;;;16.42;100.00;99151.59;5037097;28;20033;-81
2023/07/08 03:28:48;;;;;;;0.75;0.75;;;;;;;16.51;100.00;99160.91;5020595;28;20043;-82
2023/07/08 03:31:14;;;;;;;3.50;2.40;;;;;;;16.53;100.00;99153.34;5020099;28;20486;-82
2023/07/08 03:33:39;;;;;;;5.40;1.20;;;;;;;16.51;100.00;99136.47;5037048;28;20029;-81
2023/07/08 03:36:12;;;;;;;1.02;1.02;;;;;;;16.63;100.00;99147.22;5053094;28;20029;-81
2023/07/08 03:38:39;;;;;;;1.33;1.10;;;;;;;16.45;100.00;99110.38;5053544;28;20133;-81
2023/07/08 03:41:05;;;;;;;1.23;1.13;;;;;;;16.51;100.00;99120.22;5036431;28;20482;-81
2023/07/08 03:43:30;;;;;;;5.80;1.83;;;;;;;16.50;100.00;99137.56;5036367;28;20502;-82
2023/07/08 03:45:56;;;;;;;0.63;0.63;;;;;;;16.46;100.00;99147.31;5036313;28;20041;-83
2023/07/08 03:48:22;;;;;;;2.67;2.00;;;;;;;16.56;100.00;99152.81;5036752;28;20115;-82
2023/07/08 03:50:47;;;;;;;4.75;2.20;;;;;;;16.53;100.00;99157.94;5036693;28;20374;-82
2023/07/08 03:53:13;;;;;;;2.33;1.38;;;;;;;16.47;100.00;99159.78;5036269;28;20044;-81
2023/07/08 03:55:39;;;;;;;11.02;1.55;;;;;;;16.42;100.00;99148.88;5052764;28;20052;-81
2023/07/08 03:58:04;;;;;;;0.43;0.40;;;;;;;16.35;100.00;99145.53;5053007;28;20025;-82
2023/07/08 04:00:30;;;;;;;4.97;1.55;;;;;;;16.42;100.00;99155.13;5052650;28;20025;-81
2023/07/08 04:02:56;;;;;;;3.95;1.88;;;;;;;16.44;100.00;99147.56;5036410;28;20383;-81
2023/07/08 04:05:23;;;;;;;1.25;1.05;;;;;;;16.30;100.00;99127.31;5036246;28;20025;-82
2023/07/08 04:07:49;;;;;;;0.98;0.98;;;;;;;16.41;100.00;99149.97;5003440;28;20033;-82
2023/07/08 04:10:16;;;;;;;1.05;0.80;;;;;;;16.48;100.00;99156.84;5019979;28;20047;-82
2023/07/08 04:12:42;;;;;;;2.58;0.98;;;;;;;16.47;100.00;99178.78;5020184;28;20092;-83
2023/07/08 04:15:09;;;;;;;1.73;0.93;;;;;;;16.36;100.00;99160.75;5019146;28;20489;-82
2023/07/08 04:17:42;;;;;;;1.50;1.40;;;;;;;16.36;100.00;99155.31;5034852;28;20025;-82
2023/07/08 04:20:09;;;;;;;;;;;;;;;16.43;100.00;99180.34;5036590;28;20115;-82
2023/07/08 04:22:37;;;;;;;6.00;1.08;;;;;;;16.36;100.00;99185.16;5069119;28;19909;-82
2023/07/08 04:25:03;;;;;;;1.85;0.68;;;;;;;16.20;100.00;99212.06;5019879;28;20037;-82
2023/07/08 04:27:29;;;;;;;9.30;2.08;;;;;;;16.03;100.00;99211.28;5019438;28;20041;-82
2023/07/08 04:29:55;;;;;;;3.42;1.15;;;;;;;15.79;100.00;99214.19;5035703;28;20365;-82
2023/07/08 04:32:24;;;;;;;1.27;0.63;;;;;;;15.75;100.00;99218.47;5036035;28;20463;-82
2023/07/08 04:34:51;;;;;;;2.85;0.70;;;;;;;15.69;100.00;99210.50;5052454;28;20037;-82
2023/07/08 04:37:17;;;;;;;1.20;0.70;;;;;;;15.54;100.00;99194.81;5052103;28;20180;-81
2023/07/08 04:39:44;;;;;;;8.38;1.73;;;;;;;15.46;100.00;99192.50;5052252;28;20029;-81
2023/07/08 04:42:09;;;;;;;10.82;1.25;;;;;;;15.52;100.00;99222.13;5052378;28;20021;-81
2023/07/08 04:44:35;;;;;;;1.45;1.05;;;;;;;15.34;100.00;99201.50;5019405;28;20033;-81
2023/07/08 04:47:01;;;;;;;1.58;0.95;;;;;;;15.48;100.00;99222.84;5035528;28;20529;-81
2023/07/08 04:49:31;;;;;;;3.67;1.25;;;;;;;15.43;100.00;99198.38;5035509;28;20483;-81
2023/07/08 04:51:59;;;;;;;4.13;1.00;;;;;;;15.43;100.00;99222.78;5051872;28;20104;-81
2023/07/08 04:54:24;;;;;;;7.03;1.30;;;;;;;15.43;100.00;99210.06;5052287;28;20460;-80
2023/07/08 04:56:52;;;;;;;9.60;1.48;;;;;;;15.51;100.00;99228.63;5052027;28;20087;-80
2023/07/08 04:59:21;;;;;;;4.97;1.25;;;;;;;15.44;100.00;99232.56;5036071;28;20037;-81
2023/07/08 05:01:47;;;;;;;7.22;1.20;;;;;;;15.56;100.00;99252.28;5019196;28;20527;-82
2023/07/08 05:04:14;;;;;;;11.10;9.13;;;;;;;15.61;100.00;99271.28;5035326;28;20040;-81
2023/07/08 05:06:39;;;;;;;3.80;1.17;;;;;;;15.53;100.00;99237.34;5018650;28;20029;-80
2023/07/08 05:09:05;;;;;;;5.25;2.03;;;;;;;15.53;100.00;99244.63;5052031;28;20043;-82
2023/07/08 05:11:31;;;;;;;8.35;1.65;;;;;;;15.66;100.00;99260.56;5052150;28;20029;-82
2023/07/08 05:13:58;;;;;;;6.68;1.95;;;;;;;15.61;100.00;99272.16;5018857;28;20102;-81
2023/07/08 05:16:24;;;;;;;8.13;1.42;;;;;;;15.49;100.00;99257.03;5052913;28;20067;-82
2023/07/08 05:18:49;;;;;;;6.80;1.40;;;;;;;15.43;100.00;99248.00;5035092;28;20060;-81
2023/07/08 05:21:15;;;;;;;2.05;1.05;;;;;;;15.56;100.00;99276.66;5035341;28;20025;-81
2023/07/08 05:23:41;;;;;;;4.78;1.25;;;;;;;15.57;100.00;99273.69;5034941;28;20025;-83
2023/07/08 05:26:07;;;;;;;6.68;1.30;;;;;;;15.39;100.00;99268.50;5051570;28;20049;-81
2023/07/08 05:28:33;;;;;;;2.28;0.93;;;;;;;15.39;100.00;99253.06;5051682;28;20051;-83
2023/07/08 05:30:59;;;;;;;12.73;2.15;;;;;;;15.60;100.00;99266.97;5055677;28;20029;-81
2023/07/08 05:33:26;;;;;;;2.47;1.02;;;;;;;15.48;100.00;99263.50;5055648;28;20120;-82
2023/07/08 05:35:51;;;;;;;6.82;1.98;;;;;;;15.59;100.00;99259.91;5038396;28;20043;-82
2023/07/08 05:38:18;;;;;;;7.22;1.85;;;;;;;15.50;100.00;99254.06;5022661;28;20037;-82
2023/07/08 05:40:51;;;;;;;7.82;1.60;;;;;;;15.51;100.00;99261.13;5022727;28;20049;-82
2023/07/08 05:43:17;;;;;;;2.97;1.23;;;;;;;15.42;100.00;99264.47;5055280;28;20040;-83
2023/07/08 05:45:44;;;;;;;3.47;1.10;;;;;;;15.57;100.00;99289.94;5038886;28;20045;-82
2023/07/08 05:48:09;;;;;;;2.38;1.00;;;;;;;15.60;100.00;99285.94;5055129;28;20124;-80
2023/07/08 05:50:35;;;;;;;8.00;2.03;;;;;;;15.53;100.00;99279.84;5055046;28;20455;-84
2023/07/08 05:53:01;;;;;;;5.95;2.20;;;;;;;15.56;100.00;99301.03;5038385;28;20033;-83
2023/07/08 05:55:26;;;;;;;4.25;1.05;;;;;;;15.45;100.00;99286.47;5038662;28;20519;-81
2023/07/08 05:57:52;;;;;;;3.25;1.08;;;;;;;15.56;100.00;99320.81;5022229;28;20036;-82
2023/07/08 06:00:18;;;;;;;4.72;1.00;;;;;;;15.53;100.00;99313.19;5038648;28;20119;-82
2023/07/08 06:02:43;;;;;;;3.95;1.35;;;;;;;15.55;100.00;99315.63;5038023;28;20060;-81
2023/07/08 06:05:09;;;;;;;4.35;1.10;;;;;;;15.53;100.00;99345.69;5055009;28;20028;-82
2023/07/08 06:07:35;;;;;;;5.85;1.55;;;;;;;15.50;100.00;99338.03;5055981;28;20175;-83
2023/07/08 06:10:01;;;;;;;4.10;1.10;;;;;;;15.52;100.00;99344.03;5055015;28;20115;-82
2023/07/08 06:12:27;;;;;;;2.65;1.10;;;;;;;15.44;100.00;99341.72;5054919;28;20032;-82
2023/07/08 06:14:52;;;;;;;4.70;1.23;;;;;;;15.18;100.00;99291.66;5054190;28;20037;-82
2023/07/08 06:17:18;;;;;;;5.65;1.25;;;;;;;15.47;100.00;99356.66;5038146;28;20122;-83
2023/07/08 06:19:44;;;;;;;3.53;0.95;;;;;;;15.17;100.00;99317.09;5054274;28;20032;-81
2023/07/08 06:22:10;;;;;;;4.50;1.05;;;;;;;15.30;100.00;99362.84;5037727;28;20036;-83
2023/07/08 06:24:36;;;;;;;4.10;1.15;;;;;;;15.43;100.00;99371.75;5037598;28;20071;-82
2023/07/08 06:27:01;;;;;;;5.22;1.85;;;;;;;15.27;100.00;99338.97;5021661;28;20037;-83
2023/07/08 06:29:27;;;;;;;5.03;0.82;;;;;;;15.52;100.00;99392.78;5054799;28;20387;-82
2023/07/08 06:31:53;;;;;;;2.17;0.82;;;;;;;15.59;100.00;99398.09;5054596;28;20463;-83
2023/07/08 06:34:22;;;;;;;3.10;0.88;;;;;;;15.70;100.00;99399.94;5054168;28;20033;-85
2023/07/08 06:36:48;;;;;;;2.72;0.90;;;;;;;15.46;100.00;99403.78;5038294;28;20036;-82
2023/07/08 06:39:14;;;;;;;4.95;0.95;;;;;;;15.21;100.00;99418.44;5021588;28;20033;-83
2023/07/08 06:41:42;;;;;;;1.30;0.63;;;;;;;15.02;100.00;99490.84;5020828;28;20052;-82
2023/07/08 06:44:08;;;;;;;1.17;0.73;;;;;;;14.75;100.00;99481.56;5021219;28;20036;-81
2023/07/08 06:46:33;;;;;;;2.20;1.40;;;;;;;14.77;100.00;99528.97;5037904;28;20041;-81
2023/07/08 06:48:59;;;;;;;3.17;2.22;;;;;;;14.50;100.00;99547.47;5037739;28;20033;-81
2023/07/08 06:51:25;;;;;;;3.10;0.75;;;;;;;14.34;100.00;99553.53;5021309;28;20433;-80
2023/07/08 06:53:51;;;;;;;2.15;1.33;;;;;;;14.29;100.00;99583.97;5053852;28;20029;-80
2023/07/08 06:56:16;;;;;;;1.33;0.95;;;;;;;14.05;100.00;99564.09;5021037;28;20430;-81
2023/07/08 06:58:42;;;;;;;6.38;5.82;;;;;;;14.15;100.00;99609.53;5021309;28;20083;-81
2023/07/08 07:01:08;;;;;;;14.70;13.45;;;;;;;14.13;100.00;99596.25;5037608;28;20025;-81
2023/07/08 07:03:33;;;;;;;28.13;25.88;;;;;;;14.20;100.00;99636.69;5053225;28;20078;-81
2023/07/08 07:05:59;;;;;;;14.75;13.68;;;;;;;14.09;100.00;99654.50;5037534;28;20033;-82
2023/07/08 07:08:25;;;;;;;7.05;6.38;;;;;;;14.05;100.00;99662.25;5020924;28;20128;-81
2023/07/08 07:10:50;;;;;;;15.50;14.32;;;;;;;14.15;100.00;99696.03;5037096;28;20033;-83
2023/07/08 07:13:16;;;;;;;14.45;5.88;;;;;;;14.14;100.00;99695.22;5036713;28;20089;-82
2023/07/08 07:15:44;;;;;;;1.95;1.45;;;;;;;14.21;100.00;99711.34;5053088;28;20079;-82
2023/07/08 07:18:10;;;;;;;2.72;2.53;;;;;;;14.39;100.00;99740.25;5020856;28;20119;-81
2023/07/08 07:20:38;;;;;;;1.55;1.40;;;;;;;14.40;100.00;99725.72;5053626;28;20480;-85
2023/07/08 07:23:06;;;;;;;2.33;1.42;;;;;;;14.54;100.00;99754.28;5054058;28;20530;-84
2023/07/08 07:25:32;;;;;;;3.72;0.98;;;;;;;14.47;100.00;99762.44;5036944;28;20043;-83
2023/07/08 07:27:58;;;;;;;1.27;1.15;;;;;;;14.45;100.00;99771.84;5020129;28;20395;-84
2023/07/08 07:30:24;;;;;;;4.55;1.63;;;;;;;14.63;100.00;99800.78;5052688;28;20471;-84
2023/07/08 07:32:50;;;;;;;1.55;0.60;;;;;;;14.68;100.00;99800.91;5019906;28;20037;-81
2023/07/08 07:35:16;;;;;;;3.70;1.15;;;;;;;14.74;100.00;99827.09;5054012;28;20241;-82
2023/07/08 07:37:42;;;;;;;3.38;0.80;;;;;;;14.66;100.00;99812.00;5053024;28;20353;-83
2023/07/08 07:40:14;;;;;;;3.88;1.10;;;;;;;14.77;100.00;99839.34;5036347;28;20029;-82
2023/07/08 07:42:43;;;;;;;0.98;0.68;;;;;;;14.87;100.00;99821.53;5020934;28;20048;-84
2023/07/08 07:45:09;;;;;;;2.38;1.05;;;;;;;15.14;100.00;99861.81;5053378;28;20100;-84
2023/07/08 07:47:37;;;;;;;4.63;0.90;;;;;;;15.25;100.00;99871.84;5036665;28;20040;-85
2023/07/08 07:50:05;;;;;;;1.48;0.73;;;;;;;15.18;100.00;99857.56;5036522;28;20090;-85
2023/07/08 07:52:30;;;;;;;3.25;1.20;;;;;;;15.49;100.00;99897.16;5036018;28;20499;-84
2023/07/08 07:54:56;;;;;;;3.03;1.40;;;;;;;15.64;100.00;99923.00;5036512;28;20033;-85
2023/07/08 07:57:22;;;;;;;2.92;0.77;;;;;;;15.38;100.00;99885.22;5036315;28;20380;-84
2023/07/08 07:59:49;;;;;;;5.13;1.10;;;;;;;15.41;100.00;99910.22;5036335;28;20029;-84
2023/07/08 08:02:17;;;;;;;2.22;0.90;;;;;;;15.56;100.00;99935.03;5020114;28;20047;-83
2023/07/08 08:04:43;;;;;;;1.52;0.95;;;;;;;15.75;100.00;99923.09;5019907;28;20033;-85
2023/07/08 08:07:09;;;;;;;0.70;0.70;;;;;;;16.19;100.00;99952.69;5019894;28;20028;-84
2023/07/08 08:09:36;;;;;;;2.78;0.80;;;;;;;16.44;100.00;99953.34;5036411;28;20132;-84
2023/07/08 08:12:03;;;;;;;3.72;1.45;;;;;;;16.64;100.00;99968.44;5036617;28;20029;-84
2023/07/08 08:14:28;;;;;;;4.15;1.15;;;;;;;16.49;100.00;99958.91;5020117;28;20056;-83
2023/07/08 08:16:54;;;;;;;3.97;1.52;;;;;;;16.39;100.00;99982.25;5036036;28;20533;-85
2023/07/08 08:19:22;;;;;;;3.20;1.10;;;;;;;17.30;100.00;99983.56;5021836;28;20032;-85
2023/07/08 08:21:50;;;;;;;3.00;1.35;;;;;;;18.75;100.00;99966.97;5019051;28;20043;-82
2023/07/08 08:24:16;;;;;;;11.88;9.38;;;;;;;20.80;91.71;99978.31;5052538;28;20491;-82
2023/07/08 08:26:42;;;;;;;5.38;3.08;;;;;;;21.95;85.69;100001.31;5035969;28;20041;-83
2023/07/08 08:29:08;;;;;;;7.68;2.10;;;;;;;22.52;80.77;100013.19;5035653;28;20456;-82
2023/07/08 08:31:33;;;;;;;2.10;1.38;;;;;;;22.97;77.24;100022.53;5052128;28;20025;-82
2023/07/08 08:33:59;;;;;;;2.15;1.20;;;;;;;22.94;76.91;100012.09;5035907;28;20039;-81
2023/07/08 08:36:24;;;;;;;3.83;1.60;;;;;;;23.30;74.36;100018.38;5035748;28;20025;-81
2023/07/08 08:38:50;;;;;;;5.80;1.33;;;;;;;23.02;73.45;100030.75;5019255;28;20053;-83
2023/07/08 08:41:19;;;;;;;4.95;1.45;;;;;;;22.14;80.04;100029.00;5019519;28;20035;-83
2023/07/08 08:43:45;;;;;;;5.45;1.77;;;;;;;21.46;81.37;100008.00;5019182;28;20041;-81
2023/07/08 08:46:26;;;;;;;4.45;1.55;;;;;;;20.91;81.10;99998.34;5019235;28;20032;-80
2023/07/08 08:49:05;;;;;;;4.72;1.48;;;;;;;20.42;84.53;100031.22;5052351;28;20033;-81
2023/07/08 08:51:32;;;;;;;5.90;1.55;;;;;;;20.25;85.57;100044.16;5019198;28;20559;-80
2023/07/08 08:53:58;;;;;;;9.70;1.98;;;;;;;19.51;87.00;100004.53;5035713;28;20028;-80
2023/07/08 08:57:15;;;;;;;3.53;1.50;;;;;;;19.85;87.97;100043.47;5050783;28;20037;-84
2023/07/08 08:59:49;;;;;;;3.60;1.98;;;;;;;20.96;81.81;100033.91;5040241;28;20047;-83
2023/07/08 09:02:39;;;;;;;3.20;1.25;;;;;;;22.97;72.09;100055.44;5019329;28;20094;-83
2023/07/08 09:05:08;;;;;;;3.05;1.55;;;;;;;23.83;64.88;100070.91;5037907;28;20426;-81
2023/07/08 09:08:34;;;;;;;1.95;1.00;;;;;;;24.27;63.39;100072.09;5039515;28;20037;-81
2023/07/08 09:11:04;;;;;;;3.05;1.13;;;;;;;23.49;65.05;100084.44;5010329;28;20418;-85
2023/07/08 09:13:39;;;;;;;3.35;1.05;;;;;;;22.71;65.83;100085.56;5039090;28;20610;-84
2023/07/08 09:16:28;;;;;;;3.13;1.55;;;;;;;23.78;63.44;100097.56;5038794;28;20040;-81
2023/07/08 09:19:25;;;;;;;6.65;1.10;;;;;;;24.16;57.79;100103.44;5038936;28;20035;-81
2023/07/08 09:21:57;;;;;;;1.95;0.70;;;;;;;24.21;56.47;100112.47;5039042;28;20060;-80
2023/07/08 09:24:47;;;;;;;3.92;0.90;;;;;;;22.80;56.34;100113.25;5055343;28;20028;-82
2023/07/08 09:27:16;;;;;;;1.58;0.82;;;;;;;22.07;57.73;100113.31;5055923;28;20091;-81
2023/07/08 09:29:44;;;;;;;3.25;1.10;;;;;;;20.99;62.91;100141.88;5039015;28;20024;-81
2023/07/08 09:32:15;;;;;;;7.47;1.45;;;;;;;20.28;65.21;100144.66;5039206;28;20063;-80
2023/07/08 09:34:46;;;;;;;4.55;1.67;;;;;;;19.42;68.34;100142.34;5055748;28;20128;-82
2023/07/08 09:37:40;;;;;;;4.55;1.58;;;;;;;19.48;68.89;100168.66;5022243;28;20473;-81
2023/07/08 09:40:30;;;;;;;5.32;1.00;;;;;;;20.13;65.88;100156.22;5020119;28;20041;-84
2023/07/08 09:43:48;;;;;;;3.80;1.48;;;;;;;20.16;64.78;100169.34;5016937;28;20131;-82
2023/07/08 09:46:16;;;;;;;7.55;1.55;;;;;;;20.43;63.89;100158.50;5046453;28;20045;-83
2023/07/08 09:48:43;;;;;;;4.70;1.10;;;;;;;20.73;62.23;100170.84;5038473;28;20021;-87
2023/07/08 09:51:09;;;;;;;3.80;1.17;;;;;;;20.51;63.57;100166.22;5054739;28;20045;-83
2023/07/08 09:53:35;;;;;;;2.53;1.10;;;;;;;20.69;62.04;100186.09;5056252;28;20383;-83
2023/07/08 09:56:03;;;;;;;4.88;1.73;;;;;;;20.76;62.25;100203.13;5055043;28;20167;-81
2023/07/08 09:58:40;;;;;;;3.55;1.50;;;;;;;20.65;61.38;100191.25;5038830;28;20075;-81
2023/07/08 10:01:13;;;;;;;4.75;1.33;;;;;;;20.50;61.91;100200.06;5039089;28;20029;-81
2023/07/08 10:03:41;;;;;;;7.93;2.22;;;;;;;20.57;61.80;100214.41;5022112;28;20471;-84
2023/07/08 10:06:32;;;;;;;5.18;1.65;;;;;;;20.46;61.25;100212.59;5054906;28;20079;-81
2023/07/08 10:09:11;;;;;;;2.45;1.10;;;;;;;20.61;60.36;100226.47;5038882;28;20514;-82
2023/07/08 10:11:43;;;;;;;3.72;1.77;;;;;;;20.77;59.66;100238.41;5024350;28;20048;-81
2023/07/08 10:14:15;;;;;;;8.27;2.28;;;;;;;21.92;56.49;100237.25;5039926;28;20083;-85
2023/07/08 10:16:43;;;;;;;5.70;1.52;;;;;;;23.69;52.18;100243.59;5038373;28;20112;-84
2023/07/08 10:19:14;;;;;;;4.75;1.90;;;;;;;26.12;47.36;100240.13;5037740;28;20119;-84
2023/07/08 10:22:09;;;;;;;6.30;1.83;;;;;;;28.63;39.40;100259.16;5054585;28;20068;-84
2023/07/08 10:25:06;;;;;;;7.72;1.50;;;;;;;25.89;42.98;100261.00;5038050;28;20036;-82
2023/07/08 10:27:41;;;;;;;4.20;1.52;;;;;;;24.94;45.25;100257.53;5037713;28;20029;-82
2023/07/08 10:30:18;;;;;;;4.10;1.63;;;;;;;24.92;46.64;100267.16;5054470;28;20396;-81
2023/07/08 10:33:31;;;;;;;5.65;1.52;;;;;;;24.32;46.37;100259.69;5037133;28;20025;-83
2023/07/08 10:36:17;;;;;;;3.90;2.10;;;;;;;24.38;45.96;100240.44;5022291;28;20078;-84
2023/07/08 10:39:17;;;;;;;5.95;1.30;;;;;;;24.47;45.53;100263.53;5054408;28;20025;-84
2023/07/08 10:42:01;;;;;;;4.65;1.10;;;;;;;24.19;45.13;100265.78;5037509;28;20139;-84
2023/07/08 10:44:35;;;;;;;3.58;1.30;;;;;;;24.04;46.86;100268.56;5054012;28;20059;-86
2023/07/08 10:47:31;;;;;;;7.50;2.03;;;;;;;24.42;44.73;100274.50;5053960;28;20120;-85
2023/07/08 10:50:18;;;;;;;7.18;1.60;;;;;;;24.73;44.17;100284.31;5020960;28;20033;-85
2023/07/08 10:53:03;;;;;;;4.32;1.67;;;;;;;24.53;44.93;100295.38;5053903;28;20033;-85
2023/07/08 10:55:37;;;;;;;5.47;1.45;;;;;;;24.34;45.69;100292.38;5037202;28;20068;-84
2023/07/08 10:58:06;;;;;;;1.55;0.80;;;;;;;23.42;45.80;100301.50;5054028;28;20032;-85
2023/07/08 11:00:41;;;;;;;3.70;1.20;;;;;;;22.12;47.47;100307.72;5038859;28;20041;-86
2023/07/08 11:03:44;;;;;;;4.88;1.63;;;;;;;21.17;51.10;100308.25;5041520;28;20475;-87
2023/07/08 11:06:18;;;;;;;5.03;1.38;;;;;;;20.56;53.14;100278.31;5054273;28;20048;-85
2023/07/08 11:08:48;;;;;;;5.55;1.35;;;;;;;20.39;55.35;100322.00;5053807;28;20037;-83
2023/07/08 11:11:40;;;;;;;7.03;1.55;;;;;;;20.16;56.42;100331.25;5036746;28;20028;-80
2023/07/08 11:14:13;;;;;;;3.15;1.23;;;;;;;20.09;56.76;100340.66;5021038;28;20036;-87
2023/07/08 11:16:41;;;;;;;;;;;;;;;19.94;57.30;100333.88;5037430;28;20127;-85
2023/07/08 11:19:26;;;;;;;2.15;1.13;;;;;;;19.45;57.97;100310.91;5053492;28;20319;-85
2023/07/08 11:21:54;;;;;;;7.38;1.45;;;;;;;19.28;59.97;100335.41;5036782;28;20174;-85
2023/07/08 11:24:45;;;;;;;3.53;1.27;;;;;;;18.76;62.84;100333.56;5019923;28;20119;-85
2023/07/08 11:27:29;;;;;;;2.60;1.05;;;;;;;18.92;63.94;100333.88;5019687;28;20032;-85
2023/07/08 11:29:57;;;;;;;3.17;1.15;;;;;;;19.92;61.06;100344.19;5037070;28;20029;-85
2023/07/08 11:32:26;;;;;;;5.30;1.77;;;;;;;21.36;56.45;100344.28;5036413;28;20387;-85
2023/07/08 11:34:53;;;;;;;9.82;2.22;;;;;;;22.30;52.39;100347.59;5036605;28;20056;-85
2023/07/08 11:37:21;;;;;;;4.57;1.33;;;;;;;23.03;50.05;100361.44;5036100;28;20029;-82